Airfield :
LOGIN :

Register | Disclaimer

   EN    FR    IT 

 










Legend :    VFR   Marginal VFR   IFR   Intensive IFR   Very Intensive IFR
Visi :
Ceiling :
>= 8 km
>= 3000ft
5 to 8 km
1000 to 3000 ft
1500m to 5 km
500 to 1000 ft
800 to 1500m
200 to 500 ft
< 800m
< 200 ft
Symbols :   Thunderstorms  Fog  Heavy snow  Heavy precipitations  Wind > 20 kt
SIGMETs :     Misc.  Thunderstorms  Icing  Turbulence  Mountain Waves  Volcanic Ashes






- Airport Elevation : 65 ft
- IATA code : PIK


EGPK - Glasgow Prestwick

CURRENT METAR :
  • 131720Z 19014KT 9999 SCT025 19/15 Q1020

EXPIRED METARs :
  • 131650Z 20015KT 9999 -RA SCT025 19/15 Q1020
  • 131620Z 20015KT 9999 FEW027 20/15 Q1020
  • 131550Z 19015KT 9999 FEW028 SCT040 20/15 Q1021
  • 131520Z 21014KT 9999 FEW040 21/14 Q1021
  • 131450Z 21015KT 9999 FEW040 21/14 Q1021

TAF TAF EGPK
Valid from the 13 at 12:00 until the 14 at 12:00 UTC


131056Z 1312/1412 24012KT 9999 SCT025
PROB40
TEMPO 1312/1318 25015G25KT
BECMG 1320/1323 VRB03KT
TEMPO 1321/1404 6000 RA BKN012
BECMG 1400/1403 26010KT
PROB40
TEMPO 1400/1403 3000 +RA BKN006
BECMG 1406/1409 27015G28KT



MET'MAP, your aeronautical weather chart ! - Copyright ORBIFLY December 2007 - Disclaimer

ORBIFLY MET'MAP TEAM :

Programming & Development : Alexandra Zaïnal
Concept & original design : Baudouin d'Aumeries
Assistance for programming : Marc-Olivier Méhu
Technical & hardware support : Manuel Goepfert

Contact : metmap@orbifly.com




SOURCES & CREDITS :

   NOAA